createdAt,value
2022-09-29T00:01:13.759Z,78.88
2022-09-29T00:03:41.651Z,79.23
2022-09-29T00:06:16.569Z,79.18
2022-09-29T00:08:46.013Z,79.24
2022-09-29T00:11:18.287Z,79.14
2022-09-29T00:13:47.573Z,79.23
2022-09-29T00:16:15.701Z,79.23
2022-09-29T00:18:43.576Z,79.29
2022-09-29T00:21:19.802Z,79.26
2022-09-29T00:23:50.336Z,79.39
2022-09-29T00:26:22.682Z,79.52
2022-09-29T00:28:57.939Z,79.58
2022-09-29T00:31:29.517Z,79.73
2022-09-29T00:33:58.392Z,79.88
2022-09-29T00:36:30.104Z,80.09
2022-09-29T00:38:59.323Z,80.24
2022-09-29T00:41:32.442Z,80.29
2022-09-29T00:44:13.613Z,80.23
2022-09-29T00:46:52.245Z,80.53
2022-09-29T00:49:39.293Z,80.61
2022-09-29T00:52:17.365Z,80.55
2022-09-29T00:54:53.053Z,80.58
2022-09-29T00:57:33.586Z,80.39
2022-09-29T01:00:14.128Z,80.32
2022-09-29T01:02:48.951Z,80.17
2022-09-29T01:05:26.621Z,80.26
2022-09-29T01:07:54.925Z,80.37
2022-09-29T01:10:23.535Z,80.27
2022-09-29T01:12:51.434Z,79.97
2022-09-29T01:15:21.361Z,80.02
2022-09-29T01:17:49.562Z,80.22
2022-09-29T01:20:22.533Z,80.16
2022-09-29T01:23:22.935Z,80.48
2022-09-29T01:26:47.235Z,80.77
2022-09-29T01:29:54.888Z,80.85
2022-09-29T01:32:43.320Z,80.93
2022-09-29T01:35:31.410Z,80.92
2022-09-29T01:38:32.742Z,80.86
2022-09-29T01:41:09.139Z,80.90
2022-09-29T01:43:55.682Z,80.68
2022-09-29T01:46:32.578Z,80.79
2022-09-29T01:49:03.787Z,80.98
2022-09-29T01:52:00.225Z,80.90
2022-09-29T01:54:50.458Z,81.03
2022-09-29T01:57:37.379Z,81.06
2022-09-29T02:00:16.177Z,81.10
2022-09-29T02:02:55.107Z,81.15
2022-09-29T02:05:33.335Z,81.29
2022-09-29T02:08:48.670Z,81.31
2022-09-29T02:11:17.817Z,81.37
2022-09-29T02:14:01.858Z,81.51
2022-09-29T02:16:35.900Z,81.60
2022-09-29T02:19:15.942Z,81.65
2022-09-29T02:21:44.123Z,81.45
2022-09-29T02:24:13.255Z,81.28
2022-09-29T02:26:42.491Z,81.20
2022-09-29T02:29:10.762Z,81.08
2022-09-29T02:31:38.919Z,81.00
2022-09-29T02:34:15.416Z,81.16
2022-09-29T02:37:14.258Z,81.33
2022-09-29T02:39:59.237Z,81.26
2022-09-29T02:42:32.969Z,81.35
2022-09-29T02:45:23.862Z,81.47
2022-09-29T02:48:21.440Z,81.50
2022-09-29T02:51:08.951Z,81.57
2022-09-29T02:53:45.286Z,81.48
2022-09-29T02:56:52.840Z,81.50
2022-09-29T03:04:16.361Z,81.77
2022-09-29T03:06:45.287Z,81.77
2022-09-29T03:09:13.316Z,81.76
2022-09-29T03:11:41.255Z,81.60
2022-09-29T03:14:09.295Z,81.65
2022-09-29T03:16:37.430Z,81.58
2022-09-29T03:19:07.806Z,81.67
2022-09-29T03:21:35.794Z,81.47
2022-09-29T03:24:03.892Z,81.20
2022-09-29T03:26:31.831Z,80.83
2022-09-29T03:29:00.334Z,80.72
2022-09-29T03:31:28.267Z,80.64
2022-09-29T03:33:56.295Z,80.32
2022-09-29T03:36:24.237Z,80.12
2022-09-29T03:38:52.165Z,79.84
2022-09-29T03:41:20.137Z,79.74
2022-09-29T03:43:48.224Z,79.60
2022-09-29T03:46:16.135Z,79.54
2022-09-29T03:48:44.215Z,79.43
2022-09-29T03:51:12.095Z,79.66
2022-09-29T03:53:39.993Z,79.37
2022-09-29T03:56:08.582Z,79.33
2022-09-29T03:58:36.780Z,79.27
2022-09-29T04:01:04.717Z,79.37
2022-09-29T04:03:32.817Z,79.13
2022-09-29T04:06:00.792Z,79.14
2022-09-29T04:08:28.808Z,79.09
2022-09-29T04:10:56.859Z,78.98
2022-09-29T04:13:24.735Z,78.89
2022-09-29T04:15:58.148Z,78.72
2022-09-29T04:18:26.218Z,78.83
2022-09-29T04:20:54.626Z,78.98
2022-09-29T04:23:23.166Z,78.73
2022-09-29T04:25:51.005Z,78.88
2022-09-29T04:28:18.931Z,78.88
2022-09-29T04:30:46.835Z,78.80
2022-09-29T04:33:14.792Z,78.66
2022-09-29T04:35:42.737Z,78.89
2022-09-29T04:38:10.802Z,78.92
2022-09-29T04:40:38.909Z,78.83
2022-09-29T04:43:06.879Z,78.64
2022-09-29T04:45:34.915Z,78.73
2022-09-29T04:48:02.960Z,78.46
2022-09-29T04:50:31.655Z,78.52
2022-09-29T04:53:00.206Z,78.66
2022-09-29T04:55:28.112Z,78.54
2022-09-29T04:57:56.000Z,78.59
2022-09-29T05:00:24.024Z,78.95
2022-09-29T05:02:52.250Z,79.17
2022-09-29T05:05:20.230Z,78.85
2022-09-29T05:07:48.596Z,78.63
2022-09-29T05:10:16.724Z,78.54
2022-09-29T05:12:50.273Z,78.33
2022-09-29T05:15:25.691Z,78.13
2022-09-29T05:17:53.993Z,78.19
2022-09-29T05:20:21.919Z,78.43
2022-09-29T05:22:50.183Z,78.10
2022-09-29T05:25:18.072Z,78.22
2022-09-29T05:27:46.006Z,78.50
2022-09-29T05:30:13.976Z,78.54
2022-09-29T05:32:43.784Z,78.52
2022-09-29T05:35:11.791Z,78.35
2022-09-29T05:37:39.677Z,78.52
2022-09-29T05:40:08.581Z,78.92
2022-09-29T05:42:36.548Z,79.21
2022-09-29T05:45:05.367Z,79.23
2022-09-29T05:47:33.312Z,78.77
2022-09-29T05:50:01.245Z,79.12
2022-09-29T05:52:29.395Z,78.93
2022-09-29T05:54:57.260Z,79.25
2022-09-29T05:57:25.107Z,79.22
2022-09-29T05:59:53.003Z,79.22
2022-09-29T06:02:20.905Z,79.35
2022-09-29T06:04:49.343Z,79.54
2022-09-29T06:07:17.236Z,79.93
2022-09-29T06:09:45.611Z,80.20
2022-09-29T06:12:13.700Z,80.35
2022-09-29T06:14:41.608Z,80.52
2022-09-29T06:17:09.530Z,80.45
2022-09-29T06:19:39.755Z,80.41
2022-09-29T06:22:10.694Z,80.43
2022-09-29T06:24:38.629Z,80.68
2022-09-29T06:27:06.551Z,80.77
2022-09-29T06:29:34.393Z,80.79
2022-09-29T06:32:03.666Z,80.96
2022-09-29T06:34:31.647Z,81.06
2022-09-29T06:37:18.037Z,80.90
2022-09-29T06:39:45.993Z,80.94
2022-09-29T06:42:14.664Z,80.98
2022-09-29T06:44:42.720Z,81.00
2022-09-29T06:47:11.103Z,81.07
2022-09-29T06:49:39.039Z,81.03
2022-09-29T06:52:17.595Z,80.33
2022-09-29T06:54:48.072Z,79.53
2022-09-29T06:57:16.049Z,79.62
2022-09-29T06:59:44.398Z,79.32
2022-09-29T07:02:12.581Z,79.46
2022-09-29T07:04:40.470Z,79.70
2022-09-29T07:07:08.735Z,79.91
2022-09-29T07:09:36.652Z,79.90
2022-09-29T07:12:06.060Z,79.62
2022-09-29T07:14:34.201Z,79.24
2022-09-29T07:17:02.527Z,79.28
2022-09-29T07:19:31.008Z,79.15
2022-09-29T07:21:58.937Z,79.41
2022-09-29T07:24:26.969Z,79.53
2022-09-29T07:26:54.887Z,79.67
2022-09-29T07:29:23.020Z,79.77
2022-09-29T07:31:52.878Z,79.80
2022-09-29T07:34:23.105Z,79.71
2022-09-29T07:36:51.364Z,79.73
2022-09-29T07:39:21.854Z,79.69
2022-09-29T07:41:50.586Z,79.21
2022-09-29T07:44:18.593Z,79.06
2022-09-29T07:46:49.854Z,78.91
2022-09-29T07:49:19.340Z,78.82
2022-09-29T07:51:48.044Z,78.70
2022-09-29T07:54:16.189Z,78.42
2022-09-29T07:56:44.124Z,78.33
2022-09-29T07:59:12.177Z,78.34
2022-09-29T08:01:40.186Z,77.96
2022-09-29T08:04:08.697Z,78.26
2022-09-29T08:06:37.167Z,78.04
2022-09-29T08:09:05.605Z,77.97
2022-09-29T08:11:39.099Z,77.95
2022-09-29T08:14:08.889Z,78.27
2022-09-29T08:16:38.378Z,78.14
2022-09-29T08:19:07.221Z,77.83
2022-09-29T08:21:37.173Z,77.80
2022-09-29T08:24:07.478Z,78.00
2022-09-29T08:26:43.929Z,78.21
2022-09-29T08:29:17.070Z,78.17
2022-09-29T08:31:46.270Z,78.12
2022-09-29T08:34:15.558Z,78.09
2022-09-29T08:36:43.903Z,77.97
2022-09-29T08:39:12.377Z,77.99
2022-09-29T08:41:49.249Z,77.99
2022-09-29T08:44:51.896Z,77.88
2022-09-29T08:47:47.064Z,77.81
2022-09-29T08:50:41.554Z,77.66
2022-09-29T08:53:25.707Z,77.75
2022-09-29T08:56:14.488Z,77.59
2022-09-29T08:58:43.012Z,77.50
2022-09-29T09:01:28.011Z,77.22
2022-09-29T09:04:19.832Z,76.67
2022-09-29T09:07:14.361Z,76.41
2022-09-29T09:10:03.648Z,76.32
2022-09-29T09:12:55.848Z,75.88
2022-09-29T09:15:38.720Z,75.40
2022-09-29T09:18:44.693Z,75.34
2022-09-29T09:21:40.328Z,75.29
2022-09-29T09:24:24.819Z,74.86
2022-09-29T09:26:54.097Z,73.97
2022-09-29T09:29:37.806Z,73.92
2022-09-29T09:32:28.910Z,73.55
2022-09-29T09:35:41.180Z,73.85
2022-09-29T09:38:28.296Z,72.91
2022-09-29T09:41:00.388Z,73.09
2022-09-29T09:43:40.675Z,73.42
2022-09-29T09:46:20.618Z,73.71
2022-09-29T09:49:31.455Z,73.53
2022-09-29T09:54:53.246Z,73.64
2022-09-29T09:57:35.195Z,73.01
2022-09-29T10:00:28.849Z,72.94
2022-09-29T10:03:05.464Z,72.12
2022-09-29T10:05:41.165Z,72.28
2022-09-29T10:08:42.374Z,72.56
2022-09-29T10:11:19.402Z,71.99
2022-09-29T10:13:50.948Z,72.13
2022-09-29T10:16:32.740Z,72.53
2022-09-29T10:19:00.957Z,72.34
2022-09-29T10:21:32.576Z,72.13
2022-09-29T10:24:04.343Z,71.90
2022-09-29T10:26:49.377Z,71.50
2022-09-29T10:29:34.865Z,71.28
2022-09-29T10:32:14.624Z,70.88
2022-09-29T10:34:47.594Z,71.23
2022-09-29T10:37:35.785Z,71.48
2022-09-29T10:40:21.416Z,71.21
2022-09-29T10:42:51.797Z,71.41
2022-09-29T10:45:29.802Z,71.30
2022-09-29T10:47:57.632Z,71.09
2022-09-29T10:50:34.897Z,71.48
2022-09-29T10:53:34.467Z,71.76
2022-09-29T10:56:27.769Z,71.66
2022-09-29T10:59:04.749Z,71.25
2022-09-29T11:02:03.609Z,71.07
2022-09-29T11:04:37.200Z,71.46
2022-09-29T11:07:12.701Z,71.83
2022-09-29T11:09:44.397Z,71.78
2022-09-29T11:12:33.629Z,71.68
2022-09-29T11:15:02.320Z,71.56
2022-09-29T11:17:40.038Z,70.85
2022-09-29T11:20:15.069Z,70.66
2022-09-29T11:23:01.352Z,69.96
2022-09-29T11:25:37.938Z,70.22
2022-09-29T11:28:17.720Z,70.08
2022-09-29T11:31:30.616Z,69.69
2022-09-29T11:34:30.009Z,69.80
2022-09-29T11:37:29.440Z,70.21
2022-09-29T11:40:51.218Z,70.19
2022-09-29T11:43:58.530Z,69.80
2022-09-29T11:47:01.832Z,69.39
2022-09-29T11:50:06.972Z,68.93
2022-09-29T11:53:21.840Z,69.02
2022-09-29T11:56:42.349Z,68.68
2022-09-29T11:59:37.757Z,68.81
2022-09-29T12:02:48.157Z,67.62
2022-09-29T12:05:24.589Z,67.99
2022-09-29T12:08:27.930Z,67.35
2022-09-29T12:11:23.662Z,67.19
2022-09-29T12:14:46.495Z,66.94
2022-09-29T12:17:18.969Z,66.84
2022-09-29T12:20:02.356Z,66.56
2022-09-29T12:22:33.244Z,66.40
2022-09-29T12:25:04.556Z,66.38
2022-09-29T12:27:40.130Z,64.92
2022-09-29T12:30:14.177Z,65.47
2022-09-29T12:32:58.568Z,65.42
2022-09-29T12:36:04.281Z,65.88
2022-09-29T12:38:42.355Z,66.35
2022-09-29T12:41:30.927Z,65.67
2022-09-29T12:44:41.263Z,65.58
2022-09-29T12:47:33.752Z,65.67
2022-09-29T12:50:18.790Z,65.50
2022-09-29T12:53:16.351Z,65.39
2022-09-29T12:56:00.936Z,64.52
2022-09-29T12:58:56.466Z,64.28
2022-09-29T13:01:24.366Z,63.14
2022-09-29T13:04:23.353Z,62.33
2022-09-29T13:07:26.851Z,62.49
2022-09-29T13:10:10.076Z,60.50
2022-09-29T13:13:11.144Z,61.57
2022-09-29T13:16:18.643Z,59.77
2022-09-29T13:19:52.486Z,60.45
2022-09-29T13:22:50.483Z,60.24
2022-09-29T13:25:23.671Z,61.66
2022-09-29T13:27:56.403Z,61.05
2022-09-29T13:30:36.567Z,61.15
2022-09-29T13:33:25.874Z,61.01
2022-09-29T13:35:54.428Z,61.75
2022-09-29T13:38:32.483Z,61.75
2022-09-29T13:41:17.935Z,60.90
2022-09-29T13:43:51.625Z,61.22
2022-09-29T13:46:31.685Z,60.29
2022-09-29T13:49:08.527Z,59.29
2022-09-29T13:51:50.521Z,59.38
2022-09-29T13:54:41.335Z,58.84
2022-09-29T13:57:27.728Z,58.75
2022-09-29T13:59:57.332Z,57.29
2022-09-29T14:02:28.161Z,55.61
2022-09-29T14:04:57.146Z,56.90
2022-09-29T14:07:49.884Z,57.36
2022-09-29T14:10:40.532Z,57.97
2022-09-29T14:13:22.120Z,58.73
2022-09-29T14:16:12.912Z,59.23
2022-09-29T14:18:53.983Z,59.09
2022-09-29T14:21:58.357Z,58.62
2022-09-29T14:24:39.456Z,59.44
2022-09-29T14:27:37.330Z,59.68
2022-09-29T14:30:41.628Z,58.89
2022-09-29T14:33:14.727Z,58.21
2022-09-29T14:36:00.632Z,58.30
2022-09-29T14:39:02.718Z,57.39
2022-09-29T14:41:43.603Z,57.38
2022-09-29T14:44:18.584Z,57.02
2022-09-29T14:48:05.599Z,56.56
2022-09-29T14:51:12.426Z,56.11
2022-09-29T14:54:02.735Z,56.93
2022-09-29T14:57:11.834Z,57.20
2022-09-29T15:00:05.128Z,57.42
2022-09-29T15:02:37.076Z,57.61
2022-09-29T15:05:35.484Z,57.55
2022-09-29T15:08:23.446Z,56.77
2022-09-29T15:10:51.449Z,57.25
2022-09-29T15:13:31.830Z,56.23
2022-09-29T15:16:15.001Z,55.86
2022-09-29T15:18:54.979Z,55.16
2022-09-29T15:22:00.240Z,55.56
2022-09-29T15:25:10.507Z,55.89
2022-09-29T15:27:52.393Z,55.41
2022-09-29T15:30:23.355Z,56.40
2022-09-29T15:32:54.102Z,56.72
2022-09-29T15:35:26.178Z,57.09
2022-09-29T15:38:14.721Z,56.66
2022-09-29T15:40:42.694Z,56.44
2022-09-29T15:43:29.399Z,55.51
2022-09-29T15:46:03.471Z,55.18
2022-09-29T15:48:31.673Z,55.50
2022-09-29T15:51:01.965Z,55.18
2022-09-29T15:53:32.173Z,54.57
2022-09-29T15:56:00.498Z,54.69
2022-09-29T15:58:45.267Z,54.62
2022-09-29T16:01:19.035Z,54.53
2022-09-29T16:04:01.802Z,52.91
2022-09-29T16:06:33.849Z,51.45
2022-09-29T16:09:06.359Z,50.80
2022-09-29T16:11:38.169Z,51.65
2022-09-29T16:14:29.722Z,52.24
2022-09-29T16:16:57.894Z,53.01
2022-09-29T16:19:30.683Z,53.61
2022-09-29T16:22:06.582Z,52.98
2022-09-29T16:24:39.109Z,52.73
2022-09-29T16:27:54.891Z,53.29
2022-09-29T16:30:43.365Z,53.65
2022-09-29T16:33:23.002Z,54.26
2022-09-29T16:35:53.656Z,55.00
2022-09-29T16:38:48.200Z,55.55
2022-09-29T16:41:36.659Z,55.88
2022-09-29T16:44:19.854Z,56.14
2022-09-29T16:47:17.746Z,56.51
2022-09-29T16:50:02.282Z,56.89
2022-09-29T16:52:50.748Z,56.13
2022-09-29T16:55:28.245Z,56.37
2022-09-29T16:58:15.058Z,56.53
2022-09-29T17:00:43.168Z,56.45
2022-09-29T17:03:11.501Z,56.82
2022-09-29T17:05:49.820Z,56.88
2022-09-29T17:08:31.269Z,57.23
2022-09-29T17:10:59.238Z,57.64
2022-09-29T17:13:35.268Z,58.19
2022-09-29T17:16:10.191Z,59.15
2022-09-29T17:18:38.362Z,59.89
2022-09-29T17:21:06.272Z,60.78
2022-09-29T17:23:35.868Z,60.77
2022-09-29T17:26:22.794Z,61.09
2022-09-29T17:28:50.722Z,62.06
2022-09-29T17:31:19.174Z,62.80
2022-09-29T17:33:47.097Z,62.73
2022-09-29T17:36:15.142Z,63.35
2022-09-29T17:38:43.119Z,64.16
2022-09-29T17:41:16.332Z,64.52
2022-09-29T17:43:47.752Z,64.88
2022-09-29T17:46:16.665Z,65.25
2022-09-29T17:48:44.648Z,66.03
2022-09-29T17:51:18.278Z,66.64
2022-09-29T17:53:47.183Z,67.33
2022-09-29T17:56:22.731Z,67.89
2022-09-29T17:58:50.714Z,68.05
2022-09-29T18:01:22.091Z,68.33
2022-09-29T18:03:51.924Z,68.61
2022-09-29T18:06:25.180Z,68.80
2022-09-29T18:08:57.269Z,69.29
2022-09-29T18:11:26.943Z,69.56
2022-09-29T18:13:54.927Z,69.88
2022-09-29T18:16:23.999Z,69.83
2022-09-29T18:18:58.003Z,69.90
2022-09-29T18:21:27.067Z,69.98
2022-09-29T18:23:55.367Z,70.48
2022-09-29T18:26:23.532Z,70.91
2022-09-29T18:28:54.955Z,71.11
2022-09-29T18:31:27.920Z,70.94
2022-09-29T18:33:56.653Z,71.35
2022-09-29T18:36:24.616Z,71.56
2022-09-29T18:38:52.515Z,71.96
2022-09-29T18:41:21.631Z,72.23
2022-09-29T18:43:50.169Z,72.26
2022-09-29T18:46:18.470Z,72.50
2022-09-29T18:48:46.524Z,72.76
2022-09-29T18:51:16.678Z,73.05
2022-09-29T18:53:47.151Z,73.06
2022-09-29T18:56:17.464Z,73.02
2022-09-29T18:58:45.396Z,73.13
2022-09-29T19:01:21.614Z,73.17
2022-09-29T19:03:49.612Z,73.21
2022-09-29T19:06:17.853Z,73.57
2022-09-29T19:08:49.173Z,73.49
2022-09-29T19:11:21.543Z,73.64
2022-09-29T19:13:54.119Z,74.07
2022-09-29T19:16:23.933Z,74.19
2022-09-29T19:18:52.215Z,74.39
2022-09-29T19:21:20.076Z,74.28
2022-09-29T19:23:48.257Z,74.21
2022-09-29T19:26:22.424Z,74.52
2022-09-29T19:28:50.793Z,74.75
2022-09-29T19:31:21.418Z,75.00
2022-09-29T19:33:50.798Z,75.22
2022-09-29T19:36:22.512Z,75.46
2022-09-29T19:38:51.345Z,75.71
2022-09-29T19:41:23.671Z,75.74
2022-09-29T19:43:51.989Z,75.78
2022-09-29T19:46:21.059Z,75.59
2022-09-29T19:48:49.115Z,75.48
2022-09-29T19:51:39.215Z,75.59
2022-09-29T19:54:12.575Z,75.59
2022-09-29T19:56:51.354Z,75.59
2022-09-29T19:59:23.786Z,75.66
2022-09-29T20:01:52.874Z,75.74
2022-09-29T20:04:29.490Z,75.60
2022-09-29T20:06:59.146Z,75.48
2022-09-29T20:09:27.903Z,75.23
2022-09-29T20:11:56.074Z,75.27
2022-09-29T20:14:25.715Z,75.28
2022-09-29T20:16:57.933Z,75.12
2022-09-29T20:19:28.093Z,74.97
2022-09-29T20:21:57.421Z,74.88
2022-09-29T20:24:25.513Z,74.19
2022-09-29T20:26:58.057Z,74.05
2022-09-29T20:29:27.321Z,73.55
2022-09-29T20:31:55.562Z,73.28
2022-09-29T20:34:23.665Z,72.96
2022-09-29T20:36:54.733Z,72.88
2022-09-29T20:39:25.664Z,72.66
2022-09-29T20:41:55.567Z,72.67
2022-09-29T20:44:25.668Z,72.53
2022-09-29T20:46:56.440Z,72.53
2022-09-29T20:49:26.999Z,72.48
2022-09-29T20:51:55.535Z,72.37
2022-09-29T20:54:23.567Z,72.40
2022-09-29T20:56:52.246Z,72.32
2022-09-29T20:59:23.388Z,72.23
2022-09-29T21:01:52.686Z,72.50
2022-09-29T21:04:21.954Z,72.68
2022-09-29T21:06:52.112Z,72.66
2022-09-29T21:09:23.553Z,72.74
2022-09-29T21:11:54.148Z,73.12
2022-09-29T21:14:27.915Z,73.52
2022-09-29T21:16:56.255Z,73.62
2022-09-29T21:19:26.654Z,73.84
2022-09-29T21:21:56.062Z,73.94
2022-09-29T21:24:24.944Z,73.97
2022-09-29T21:26:53.390Z,74.27
2022-09-29T21:29:21.611Z,74.44
2022-09-29T21:31:50.666Z,74.64
2022-09-29T21:34:19.143Z,74.83
2022-09-29T21:36:47.431Z,74.80
2022-09-29T21:39:16.932Z,74.72
2022-09-29T21:41:46.638Z,74.65
2022-09-29T21:44:24.339Z,74.82
2022-09-29T21:46:53.490Z,75.12
2022-09-29T21:49:21.731Z,75.63
2022-09-29T21:51:51.212Z,75.72
2022-09-29T21:54:25.386Z,75.63
2022-09-29T21:56:53.587Z,75.53
2022-09-29T21:59:22.949Z,75.51
2022-09-29T22:01:52.393Z,75.48
2022-09-29T22:04:20.937Z,75.28
2022-09-29T22:06:49.231Z,75.21
2022-09-29T22:09:21.311Z,75.54
2022-09-29T22:11:50.644Z,75.86
2022-09-29T22:14:19.918Z,76.24
2022-09-29T22:16:48.029Z,76.66
2022-09-29T22:19:23.457Z,77.10
2022-09-29T22:22:00.766Z,77.49
2022-09-29T22:24:28.965Z,77.88
2022-09-29T22:26:56.914Z,78.20
2022-09-29T22:29:25.854Z,78.19
2022-09-29T22:31:54.019Z,78.24
2022-09-29T22:34:21.978Z,78.28
2022-09-29T22:36:49.918Z,78.17
2022-09-29T22:39:18.015Z,77.87
2022-09-29T22:41:46.076Z,77.89
2022-09-29T22:44:14.012Z,78.27
2022-09-29T22:46:42.010Z,78.33
2022-09-29T22:49:11.321Z,78.38
2022-09-29T22:51:39.303Z,78.59
2022-09-29T22:54:07.982Z,78.71
2022-09-29T22:56:35.953Z,78.87
2022-09-29T22:59:04.921Z,79.00
2022-09-29T23:01:34.550Z,78.86
2022-09-29T23:04:04.235Z,78.46
2022-09-29T23:06:33.886Z,78.64
2022-09-29T23:09:02.180Z,78.92
2022-09-29T23:11:31.510Z,79.01
2022-09-29T23:14:00.929Z,79.40
2022-09-29T23:16:29.093Z,80.17
2022-09-29T23:18:58.775Z,80.89
2022-09-29T23:21:27.192Z,80.36
2022-09-29T23:24:01.419Z,80.09
2022-09-29T23:26:30.900Z,80.03
2022-09-29T23:29:00.255Z,79.93
2022-09-29T23:31:28.398Z,79.81
2022-09-29T23:33:59.529Z,80.01
2022-09-29T23:36:30.082Z,80.24
2022-09-29T23:39:10.505Z,80.43
2022-09-29T23:41:45.556Z,80.70
2022-09-29T23:44:18.060Z,80.77
2022-09-29T23:46:46.351Z,80.62
2022-09-29T23:49:18.297Z,80.76
2022-09-29T23:51:52.736Z,81.16
2022-09-29T23:54:25.000Z,81.61
2022-09-29T23:56:55.928Z,82.00
2022-09-29T23:59:25.672Z,82.24
